sensor_id;sensor_type;location;lat;lon;timestamp;temperature;humidity
2495;DHT22;1258;48.336;14.322;2023-10-31T00:01:54;16.60;99.90
2495;DHT22;1258;48.336;14.322;2023-10-31T00:04:22;16.60;99.90
2495;DHT22;1258;48.336;14.322;2023-10-31T00:06:49;16.50;99.90
2495;DHT22;1258;48.336;14.322;2023-10-31T00:09:16;16.50;99.90
2495;DHT22;1258;48.336;14.322;2023-10-31T00:11:43;16.30;99.90
2495;DHT22;1258;48.336;14.322;2023-10-31T00:14:10;16.10;99.90
2495;DHT22;1258;48.336;14.322;2023-10-31T00:16:37;16.00;99.90
2495;DHT22;1258;48.336;14.322;2023-10-31T00:19:04;15.90;99.90
2495;DHT22;1258;48.336;14.322;2023-10-31T00:21:32;15.70;99.90
2495;DHT22;1258;48.336;14.322;2023-10-31T00:23:59;15.50;99.90
2495;DHT22;1258;48.336;14.322;2023-10-31T00:26:26;15.20;99.90
2495;DHT22;1258;48.336;14.322;2023-10-31T00:28:53;15.20;99.90
2495;DHT22;1258;48.336;14.322;2023-10-31T00:31:20;15.10;99.90
2495;DHT22;1258;48.336;14.322;2023-10-31T00:33:47;14.90;99.90
2495;DHT22;1258;48.336;14.322;2023-10-31T00:36:14;14.70;99.90
2495;DHT22;1258;48.336;14.322;2023-10-31T00:38:42;14.80;99.90
2495;DHT22;1258;48.336;14.322;2023-10-31T00:41:09;14.70;99.90
2495;DHT22;1258;48.336;14.322;2023-10-31T00:43:35;14.70;99.90
2495;DHT22;1258;48.336;14.322;2023-10-31T00:46:03;14.60;99.90
2495;DHT22;1258;48.336;14.322;2023-10-31T00:48:30;14.60;99.90
2495;DHT22;1258;48.336;14.322;2023-10-31T00:51:02;14.60;99.90
2495;DHT22;1258;48.336;14.322;2023-10-31T00:53:29;14.50;99.90
2495;DHT22;1258;48.336;14.322;2023-10-31T00:55:57;14.50;99.90
2495;DHT22;1258;48.336;14.322;2023-10-31T00:58:24;14.40;99.90
2495;DHT22;1258;48.336;14.322;2023-10-31T01:00:51;14.40;99.90
2495;DHT22;1258;48.336;14.322;2023-10-31T01:03:18;14.40;99.90
2495;DHT22;1258;48.336;14.322;2023-10-31T01:05:45;14.40;99.90
2495;DHT22;1258;48.336;14.322;2023-10-31T01:08:12;14.40;99.90
2495;DHT22;1258;48.336;14.322;2023-10-31T01:10:39;14.10;99.90
2495;DHT22;1258;48.336;14.322;2023-10-31T01:13:07;14.10;99.90
2495;DHT22;1258;48.336;14.322;2023-10-31T01:15:34;14.10;99.90
2495;DHT22;1258;48.336;14.322;2023-10-31T01:18:00;14.00;99.90
2495;DHT22;1258;48.336;14.322;2023-10-31T01:20:27;14.00;99.90
2495;DHT22;1258;48.336;14.322;2023-10-31T01:22:54;13.90;99.90
2495;DHT22;1258;48.336;14.322;2023-10-31T01:25:21;13.90;99.90
2495;DHT22;1258;48.336;14.322;2023-10-31T01:27:48;13.80;99.90
2495;DHT22;1258;48.336;14.322;2023-10-31T01:30:16;13.80;99.90
2495;DHT22;1258;48.336;14.322;2023-10-31T01:32:43;13.80;99.90
2495;DHT22;1258;48.336;14.322;2023-10-31T01:35:10;13.80;99.90
2495;DHT22;1258;48.336;14.322;2023-10-31T01:37:37;13.60;99.90
2495;DHT22;1258;48.336;14.322;2023-10-31T01:40:05;13.60;99.90
2495;DHT22;1258;48.336;14.322;2023-10-31T01:42:33;13.60;99.90
2495;DHT22;1258;48.336;14.322;2023-10-31T01:45:00;13.60;99.90
2495;DHT22;1258;48.336;14.322;2023-10-31T01:47:28;13.60;99.90
2495;DHT22;1258;48.336;14.322;2023-10-31T01:49:55;13.40;99.90
2495;DHT22;1258;48.336;14.322;2023-10-31T01:52:22;13.50;99.90
2495;DHT22;1258;48.336;14.322;2023-10-31T01:54:49;13.40;99.90
2495;DHT22;1258;48.336;14.322;2023-10-31T01:57:19;13.40;99.90
2495;DHT22;1258;48.336;14.322;2023-10-31T01:59:47;13.30;99.90
2495;DHT22;1258;48.336;14.322;2023-10-31T02:02:15;13.20;99.90
2495;DHT22;1258;48.336;14.322;2023-10-31T02:04:44;13.20;99.90
2495;DHT22;1258;48.336;14.322;2023-10-31T02:07:11;13.20;99.90
2495;DHT22;1258;48.336;14.322;2023-10-31T02:09:38;13.20;99.90
2495;DHT22;1258;48.336;14.322;2023-10-31T02:12:05;13.10;99.90
2495;DHT22;1258;48.336;14.322;2023-10-31T02:14:32;13.10;99.90
2495;DHT22;1258;48.336;14.322;2023-10-31T02:16:59;13.10;99.90
2495;DHT22;1258;48.336;14.322;2023-10-31T02:19:26;13.00;99.90
2495;DHT22;1258;48.336;14.322;2023-10-31T02:21:54;13.00;99.90
2495;DHT22;1258;48.336;14.322;2023-10-31T02:24:21;13.00;99.90
2495;DHT22;1258;48.336;14.322;2023-10-31T02:26:48;13.00;99.90
2495;DHT22;1258;48.336;14.322;2023-10-31T02:29:15;12.90;99.90
2495;DHT22;1258;48.336;14.322;2023-10-31T02:31:42;12.90;99.90
2495;DHT22;1258;48.336;14.322;2023-10-31T02:34:09;12.90;99.90
2495;DHT22;1258;48.336;14.322;2023-10-31T02:36:36;12.90;99.90
2495;DHT22;1258;48.336;14.322;2023-10-31T02:39:04;12.90;99.90
2495;DHT22;1258;48.336;14.322;2023-10-31T02:41:31;12.90;99.90
2495;DHT22;1258;48.336;14.322;2023-10-31T02:43:58;12.90;99.90
2495;DHT22;1258;48.336;14.322;2023-10-31T02:46:25;12.90;99.90
2495;DHT22;1258;48.336;14.322;2023-10-31T02:48:52;12.90;99.90
2495;DHT22;1258;48.336;14.322;2023-10-31T02:51:19;12.80;99.90
2495;DHT22;1258;48.336;14.322;2023-10-31T02:53:45;12.80;99.90
2495;DHT22;1258;48.336;14.322;2023-10-31T02:56:14;12.80;99.90
2495;DHT22;1258;48.336;14.322;2023-10-31T02:58:41;12.80;99.90
2495;DHT22;1258;48.336;14.322;2023-10-31T03:01:07;12.80;99.90
2495;DHT22;1258;48.336;14.322;2023-10-31T03:03:34;12.80;99.90
2495;DHT22;1258;48.336;14.322;2023-10-31T03:06:01;12.80;99.90
2495;DHT22;1258;48.336;14.322;2023-10-31T03:08:28;12.80;99.90
2495;DHT22;1258;48.336;14.322;2023-10-31T03:10:55;12.90;99.90
2495;DHT22;1258;48.336;14.322;2023-10-31T03:13:23;12.70;99.90
2495;DHT22;1258;48.336;14.322;2023-10-31T03:15:50;12.80;99.90
2495;DHT22;1258;48.336;14.322;2023-10-31T03:18:17;12.80;99.90
2495;DHT22;1258;48.336;14.322;2023-10-31T03:20:44;12.70;99.90
2495;DHT22;1258;48.336;14.322;2023-10-31T03:23:12;12.70;99.90
2495;DHT22;1258;48.336;14.322;2023-10-31T03:25:39;12.60;99.90
2495;DHT22;1258;48.336;14.322;2023-10-31T03:28:18;12.70;99.90
2495;DHT22;1258;48.336;14.322;2023-10-31T03:30:47;12.60;99.90
2495;DHT22;1258;48.336;14.322;2023-10-31T03:33:14;12.50;99.90
2495;DHT22;1258;48.336;14.322;2023-10-31T03:35:42;12.50;99.90
2495;DHT22;1258;48.336;14.322;2023-10-31T03:38:09;12.50;99.90
2495;DHT22;1258;48.336;14.322;2023-10-31T03:40:36;12.40;99.90
2495;DHT22;1258;48.336;14.322;2023-10-31T03:43:05;12.40;99.90
2495;DHT22;1258;48.336;14.322;2023-10-31T03:45:32;12.40;99.90
2495;DHT22;1258;48.336;14.322;2023-10-31T03:48:01;12.30;99.90
2495;DHT22;1258;48.336;14.322;2023-10-31T03:50:27;12.30;99.90
2495;DHT22;1258;48.336;14.322;2023-10-31T03:52:54;12.30;99.90
2495;DHT22;1258;48.336;14.322;2023-10-31T03:55:21;12.20;99.90
2495;DHT22;1258;48.336;14.322;2023-10-31T03:57:48;12.10;99.90
2495;DHT22;1258;48.336;14.322;2023-10-31T04:00:16;12.20;99.90
2495;DHT22;1258;48.336;14.322;2023-10-31T04:02:43;12.20;99.90
2495;DHT22;1258;48.336;14.322;2023-10-31T04:05:11;12.00;99.90
2495;DHT22;1258;48.336;14.322;2023-10-31T04:07:38;12.00;99.90
2495;DHT22;1258;48.336;14.322;2023-10-31T04:10:05;11.90;99.90
2495;DHT22;1258;48.336;14.322;2023-10-31T04:12:33;12.00;99.90
2495;DHT22;1258;48.336;14.322;2023-10-31T04:15:00;11.90;99.90
2495;DHT22;1258;48.336;14.322;2023-10-31T04:17:27;11.70;99.90
2495;DHT22;1258;48.336;14.322;2023-10-31T04:19:54;11.60;99.90
2495;DHT22;1258;48.336;14.322;2023-10-31T04:22:22;11.60;99.90
2495;DHT22;1258;48.336;14.322;2023-10-31T04:24:49;11.60;99.90
2495;DHT22;1258;48.336;14.322;2023-10-31T04:27:16;11.70;99.90
2495;DHT22;1258;48.336;14.322;2023-10-31T04:29:43;11.60;99.90
2495;DHT22;1258;48.336;14.322;2023-10-31T04:32:10;11.60;99.90
2495;DHT22;1258;48.336;14.322;2023-10-31T04:34:37;11.50;99.90
2495;DHT22;1258;48.336;14.322;2023-10-31T04:37:04;11.40;99.90
2495;DHT22;1258;48.336;14.322;2023-10-31T04:39:32;11.50;99.90
2495;DHT22;1258;48.336;14.322;2023-10-31T04:41:59;11.40;99.90
2495;DHT22;1258;48.336;14.322;2023-10-31T04:44:26;11.40;99.90
2495;DHT22;1258;48.336;14.322;2023-10-31T04:46:52;11.30;99.90
2495;DHT22;1258;48.336;14.322;2023-10-31T04:49:19;11.40;99.90
2495;DHT22;1258;48.336;14.322;2023-10-31T04:51:47;11.30;99.90
2495;DHT22;1258;48.336;14.322;2023-10-31T04:54:14;11.30;99.90
2495;DHT22;1258;48.336;14.322;2023-10-31T04:56:42;11.20;99.90
2495;DHT22;1258;48.336;14.322;2023-10-31T04:59:09;11.40;99.90
2495;DHT22;1258;48.336;14.322;2023-10-31T05:01:36;11.40;99.90
2495;DHT22;1258;48.336;14.322;2023-10-31T05:04:03;11.30;99.90
2495;DHT22;1258;48.336;14.322;2023-10-31T05:06:30;11.30;99.90
2495;DHT22;1258;48.336;14.322;2023-10-31T05:08:57;11.30;99.90
2495;DHT22;1258;48.336;14.322;2023-10-31T05:11:24;11.40;99.90
2495;DHT22;1258;48.336;14.322;2023-10-31T05:13:53;11.40;99.90
2495;DHT22;1258;48.336;14.322;2023-10-31T05:16:19;11.30;99.90
2495;DHT22;1258;48.336;14.322;2023-10-31T05:18:46;11.40;99.90
2495;DHT22;1258;48.336;14.322;2023-10-31T05:21:19;11.30;99.90
2495;DHT22;1258;48.336;14.322;2023-10-31T05:23:46;11.40;99.90
2495;DHT22;1258;48.336;14.322;2023-10-31T05:26:13;11.60;99.90
2495;DHT22;1258;48.336;14.322;2023-10-31T05:28:40;11.70;99.90
2495;DHT22;1258;48.336;14.322;2023-10-31T05:31:08;11.70;99.90
2495;DHT22;1258;48.336;14.322;2023-10-31T05:33:35;11.60;99.90
2495;DHT22;1258;48.336;14.322;2023-10-31T05:36:02;11.70;99.90
2495;DHT22;1258;48.336;14.322;2023-10-31T05:38:29;11.50;99.90
2495;DHT22;1258;48.336;14.322;2023-10-31T05:40:56;11.50;99.90
2495;DHT22;1258;48.336;14.322;2023-10-31T05:43:23;11.50;99.90
2495;DHT22;1258;48.336;14.322;2023-10-31T05:45:50;11.60;99.90
2495;DHT22;1258;48.336;14.322;2023-10-31T05:48:18;11.40;99.90
2495;DHT22;1258;48.336;14.322;2023-10-31T05:50:45;11.40;99.90
2495;DHT22;1258;48.336;14.322;2023-10-31T05:53:12;11.40;99.90
2495;DHT22;1258;48.336;14.322;2023-10-31T05:55:39;11.40;99.90
2495;DHT22;1258;48.336;14.322;2023-10-31T05:58:06;11.40;99.90
2495;DHT22;1258;48.336;14.322;2023-10-31T06:00:33;11.40;99.90
2495;DHT22;1258;48.336;14.322;2023-10-31T06:03:01;11.40;99.90
2495;DHT22;1258;48.336;14.322;2023-10-31T06:05:29;11.40;99.90
2495;DHT22;1258;48.336;14.322;2023-10-31T06:07:56;11.50;99.90
2495;DHT22;1258;48.336;14.322;2023-10-31T06:10:23;11.50;99.90
2495;DHT22;1258;48.336;14.322;2023-10-31T06:12:50;11.60;99.90
2495;DHT22;1258;48.336;14.322;2023-10-31T06:15:17;11.60;99.90
2495;DHT22;1258;48.336;14.322;2023-10-31T06:17:44;11.80;99.90
2495;DHT22;1258;48.336;14.322;2023-10-31T06:20:11;11.70;99.90
2495;DHT22;1258;48.336;14.322;2023-10-31T06:22:39;11.60;99.90
2495;DHT22;1258;48.336;14.322;2023-10-31T06:25:07;11.60;99.90
2495;DHT22;1258;48.336;14.322;2023-10-31T06:27:33;11.60;99.90
2495;DHT22;1258;48.336;14.322;2023-10-31T06:30:01;11.70;99.90
2495;DHT22;1258;48.336;14.322;2023-10-31T06:32:28;11.60;99.90
2495;DHT22;1258;48.336;14.322;2023-10-31T06:34:55;11.70;99.90
2495;DHT22;1258;48.336;14.322;2023-10-31T06:37:22;11.60;99.90
2495;DHT22;1258;48.336;14.322;2023-10-31T06:39:50;11.60;99.90
2495;DHT22;1258;48.336;14.322;2023-10-31T06:42:17;11.70;99.90
2495;DHT22;1258;48.336;14.322;2023-10-31T06:44:45;11.60;99.90
2495;DHT22;1258;48.336;14.322;2023-10-31T06:47:12;11.60;99.90
2495;DHT22;1258;48.336;14.322;2023-10-31T06:49:39;11.60;99.90
2495;DHT22;1258;48.336;14.322;2023-10-31T06:52:06;11.50;99.90
2495;DHT22;1258;48.336;14.322;2023-10-31T06:54:33;11.50;99.90
2495;DHT22;1258;48.336;14.322;2023-10-31T06:57:01;11.50;99.90
2495;DHT22;1258;48.336;14.322;2023-10-31T06:59:28;11.50;99.90
2495;DHT22;1258;48.336;14.322;2023-10-31T07:01:55;11.40;99.90
2495;DHT22;1258;48.336;14.322;2023-10-31T07:04:22;11.40;99.90
2495;DHT22;1258;48.336;14.322;2023-10-31T07:06:49;11.40;99.90
2495;DHT22;1258;48.336;14.322;2023-10-31T07:09:22;11.30;99.90
2495;DHT22;1258;48.336;14.322;2023-10-31T07:11:49;11.30;99.90
2495;DHT22;1258;48.336;14.322;2023-10-31T07:14:17;11.30;99.90
2495;DHT22;1258;48.336;14.322;2023-10-31T07:16:44;11.30;99.90
2495;DHT22;1258;48.336;14.322;2023-10-31T07:19:11;11.40;99.90
2495;DHT22;1258;48.336;14.322;2023-10-31T07:21:38;11.40;99.90
2495;DHT22;1258;48.336;14.322;2023-10-31T07:24:06;11.40;99.90
2495;DHT22;1258;48.336;14.322;2023-10-31T07:26:34;11.50;99.90
2495;DHT22;1258;48.336;14.322;2023-10-31T07:29:01;11.50;99.90
2495;DHT22;1258;48.336;14.322;2023-10-31T07:31:29;11.50;99.90
2495;DHT22;1258;48.336;14.322;2023-10-31T07:33:56;11.40;99.90
2495;DHT22;1258;48.336;14.322;2023-10-31T07:36:23;11.50;99.90
2495;DHT22;1258;48.336;14.322;2023-10-31T07:38:50;11.60;99.90
2495;DHT22;1258;48.336;14.322;2023-10-31T07:41:17;11.60;99.90
2495;DHT22;1258;48.336;14.322;2023-10-31T07:43:44;11.60;99.90
2495;DHT22;1258;48.336;14.322;2023-10-31T07:46:11;11.60;99.90
2495;DHT22;1258;48.336;14.322;2023-10-31T07:48:39;11.60;99.90
2495;DHT22;1258;48.336;14.322;2023-10-31T07:51:06;11.60;99.90
2495;DHT22;1258;48.336;14.322;2023-10-31T07:53:33;11.60;99.90
2495;DHT22;1258;48.336;14.322;2023-10-31T07:56:00;11.60;99.90
2495;DHT22;1258;48.336;14.322;2023-10-31T07:58:27;11.60;99.90
2495;DHT22;1258;48.336;14.322;2023-10-31T08:00:54;11.50;99.90
2495;DHT22;1258;48.336;14.322;2023-10-31T08:03:20;11.60;99.90
2495;DHT22;1258;48.336;14.322;2023-10-31T08:05:49;11.60;99.90
2495;DHT22;1258;48.336;14.322;2023-10-31T08:08:15;11.50;99.90
2495;DHT22;1258;48.336;14.322;2023-10-31T08:10:42;11.60;99.90
2495;DHT22;1258;48.336;14.322;2023-10-31T08:13:09;11.40;99.90
2495;DHT22;1258;48.336;14.322;2023-10-31T08:15:36;11.40;99.90
2495;DHT22;1258;48.336;14.322;2023-10-31T08:18:03;11.40;99.90
2495;DHT22;1258;48.336;14.322;2023-10-31T08:20:30;11.40;99.90
2495;DHT22;1258;48.336;14.322;2023-10-31T08:23:00;11.50;99.90
2495;DHT22;1258;48.336;14.322;2023-10-31T08:25:28;11.40;99.90
2495;DHT22;1258;48.336;14.322;2023-10-31T08:27:54;11.40;99.90
2495;DHT22;1258;48.336;14.322;2023-10-31T08:30:22;11.50;99.90
2495;DHT22;1258;48.336;14.322;2023-10-31T08:32:49;11.50;99.90
2495;DHT22;1258;48.336;14.322;2023-10-31T08:35:16;11.50;99.90
2495;DHT22;1258;48.336;14.322;2023-10-31T08:37:43;11.50;99.90
2495;DHT22;1258;48.336;14.322;2023-10-31T08:40:11;11.40;99.90
2495;DHT22;1258;48.336;14.322;2023-10-31T08:42:38;11.50;99.90
2495;DHT22;1258;48.336;14.322;2023-10-31T08:45:06;11.40;99.90
2495;DHT22;1258;48.336;14.322;2023-10-31T08:47:33;11.40;99.90
2495;DHT22;1258;48.336;14.322;2023-10-31T08:50:00;11.30;99.90
2495;DHT22;1258;48.336;14.322;2023-10-31T08:52:27;11.40;99.90
2495;DHT22;1258;48.336;14.322;2023-10-31T08:54:54;11.30;99.90
2495;DHT22;1258;48.336;14.322;2023-10-31T08:57:22;11.30;99.90
2495;DHT22;1258;48.336;14.322;2023-10-31T08:59:49;11.30;99.90
2495;DHT22;1258;48.336;14.322;2023-10-31T09:02:16;11.30;99.90
2495;DHT22;1258;48.336;14.322;2023-10-31T09:04:43;11.40;99.90
2495;DHT22;1258;48.336;14.322;2023-10-31T09:07:10;11.30;99.90
2495;DHT22;1258;48.336;14.322;2023-10-31T09:09:37;11.20;99.90
2495;DHT22;1258;48.336;14.322;2023-10-31T09:12:04;11.30;99.90
2495;DHT22;1258;48.336;14.322;2023-10-31T09:14:33;11.30;99.90
2495;DHT22;1258;48.336;14.322;2023-10-31T09:17:01;11.40;99.90
2495;DHT22;1258;48.336;14.322;2023-10-31T09:19:28;11.40;99.90
2495;DHT22;1258;48.336;14.322;2023-10-31T09:21:55;11.40;99.90
2495;DHT22;1258;48.336;14.322;2023-10-31T09:24:22;11.40;99.90
2495;DHT22;1258;48.336;14.322;2023-10-31T09:26:49;11.40;99.90
2495;DHT22;1258;48.336;14.322;2023-10-31T09:29:16;11.50;99.90
2495;DHT22;1258;48.336;14.322;2023-10-31T09:31:44;11.50;99.90
2495;DHT22;1258;48.336;14.322;2023-10-31T09:34:12;11.30;99.90
2495;DHT22;1258;48.336;14.322;2023-10-31T09:36:39;11.30;99.90
2495;DHT22;1258;48.336;14.322;2023-10-31T09:39:06;11.40;99.90
2495;DHT22;1258;48.336;14.322;2023-10-31T09:41:33;11.30;99.90
2495;DHT22;1258;48.336;14.322;2023-10-31T09:44:00;11.30;99.90
2495;DHT22;1258;48.336;14.322;2023-10-31T09:46:28;11.10;99.90
2495;DHT22;1258;48.336;14.322;2023-10-31T09:48:57;11.10;99.90
2495;DHT22;1258;48.336;14.322;2023-10-31T09:51:24;11.00;99.90
2495;DHT22;1258;48.336;14.322;2023-10-31T09:53:54;11.10;99.90
2495;DHT22;1258;48.336;14.322;2023-10-31T09:56:21;11.10;99.90
2495;DHT22;1258;48.336;14.322;2023-10-31T09:58:48;11.10;99.90
2495;DHT22;1258;48.336;14.322;2023-10-31T10:01:15;11.10;99.90
2495;DHT22;1258;48.336;14.322;2023-10-31T10:03:42;11.00;99.90
2495;DHT22;1258;48.336;14.322;2023-10-31T10:06:11;11.10;99.90
2495;DHT22;1258;48.336;14.322;2023-10-31T10:08:38;11.10;99.90
2495;DHT22;1258;48.336;14.322;2023-10-31T10:11:05;11.10;99.90
2495;DHT22;1258;48.336;14.322;2023-10-31T10:13:32;11.10;99.90
2495;DHT22;1258;48.336;14.322;2023-10-31T10:16:00;11.00;99.90
2495;DHT22;1258;48.336;14.322;2023-10-31T10:18:28;10.90;99.90
2495;DHT22;1258;48.336;14.322;2023-10-31T10:20:56;10.90;99.90
2495;DHT22;1258;48.336;14.322;2023-10-31T10:23:25;10.80;99.90
2495;DHT22;1258;48.336;14.322;2023-10-31T10:25:54;10.70;99.90
2495;DHT22;1258;48.336;14.322;2023-10-31T10:28:21;10.80;99.90
2495;DHT22;1258;48.336;14.322;2023-10-31T10:30:50;10.60;99.90
2495;DHT22;1258;48.336;14.322;2023-10-31T10:33:18;10.70;99.90
2495;DHT22;1258;48.336;14.322;2023-10-31T10:35:45;10.60;99.90
2495;DHT22;1258;48.336;14.322;2023-10-31T10:38:14;10.70;99.90
2495;DHT22;1258;48.336;14.322;2023-10-31T10:40:44;10.90;99.90
2495;DHT22;1258;48.336;14.322;2023-10-31T10:43:13;10.70;99.90
2495;DHT22;1258;48.336;14.322;2023-10-31T10:45:42;10.90;99.90
2495;DHT22;1258;48.336;14.322;2023-10-31T10:48:12;10.90;99.90
2495;DHT22;1258;48.336;14.322;2023-10-31T10:50:42;10.90;99.90
2495;DHT22;1258;48.336;14.322;2023-10-31T10:53:15;10.90;99.90
2495;DHT22;1258;48.336;14.322;2023-10-31T10:55:46;10.80;99.90
2495;DHT22;1258;48.336;14.322;2023-10-31T10:58:24;10.70;99.90
2495;DHT22;1258;48.336;14.322;2023-10-31T11:00:53;10.70;99.90
2495;DHT22;1258;48.336;14.322;2023-10-31T11:03:22;10.70;99.90
2495;DHT22;1258;48.336;14.322;2023-10-31T11:05:51;10.70;99.90
2495;DHT22;1258;48.336;14.322;2023-10-31T11:08:20;10.70;99.90
2495;DHT22;1258;48.336;14.322;2023-10-31T11:10:48;10.60;99.90
2495;DHT22;1258;48.336;14.322;2023-10-31T11:13:15;10.70;99.90
2495;DHT22;1258;48.336;14.322;2023-10-31T11:15:42;10.60;99.90
2495;DHT22;1258;48.336;14.322;2023-10-31T11:18:10;10.60;99.90
2495;DHT22;1258;48.336;14.322;2023-10-31T11:20:37;10.70;99.90
2495;DHT22;1258;48.336;14.322;2023-10-31T11:23:05;10.60;99.90
2495;DHT22;1258;48.336;14.322;2023-10-31T11:25:32;10.70;99.90
2495;DHT22;1258;48.336;14.322;2023-10-31T11:28:13;10.70;99.90
2495;DHT22;1258;48.336;14.322;2023-10-31T11:30:40;10.60;99.90
2495;DHT22;1258;48.336;14.322;2023-10-31T11:33:11;10.60;99.90
2495;DHT22;1258;48.336;14.322;2023-10-31T11:35:39;10.70;99.90
2495;DHT22;1258;48.336;14.322;2023-10-31T11:38:07;10.80;99.90
2495;DHT22;1258;48.336;14.322;2023-10-31T11:40:36;10.80;99.90
2495;DHT22;1258;48.336;14.322;2023-10-31T11:43:04;10.70;99.90
2495;DHT22;1258;48.336;14.322;2023-10-31T11:45:35;10.60;99.90
2495;DHT22;1258;48.336;14.322;2023-10-31T11:48:03;10.60;99.90
2495;DHT22;1258;48.336;14.322;2023-10-31T11:50:31;10.60;99.90
2495;DHT22;1258;48.336;14.322;2023-10-31T11:53:05;10.60;99.90
2495;DHT22;1258;48.336;14.322;2023-10-31T11:55:33;10.60;99.90
2495;DHT22;1258;48.336;14.322;2023-10-31T11:58:16;10.80;99.90
2495;DHT22;1258;48.336;14.322;2023-10-31T12:00:45;10.60;99.90
2495;DHT22;1258;48.336;14.322;2023-10-31T12:03:16;10.70;99.90
2495;DHT22;1258;48.336;14.322;2023-10-31T12:05:54;10.60;99.90
2495;DHT22;1258;48.336;14.322;2023-10-31T12:08:28;10.70;99.90
2495;DHT22;1258;48.336;14.322;2023-10-31T12:11:04;10.70;99.90
2495;DHT22;1258;48.336;14.322;2023-10-31T12:13:31;10.80;99.90
2495;DHT22;1258;48.336;14.322;2023-10-31T12:15:59;10.80;99.90
2495;DHT22;1258;48.336;14.322;2023-10-31T12:18:27;10.80;99.90
2495;DHT22;1258;48.336;14.322;2023-10-31T12:20:54;10.80;99.90
2495;DHT22;1258;48.336;14.322;2023-10-31T12:23:21;10.70;99.90
2495;DHT22;1258;48.336;14.322;2023-10-31T12:25:49;10.80;99.90
2495;DHT22;1258;48.336;14.322;2023-10-31T12:28:17;10.60;99.90
2495;DHT22;1258;48.336;14.322;2023-10-31T12:30:47;10.70;99.90
2495;DHT22;1258;48.336;14.322;2023-10-31T12:33:16;10.80;99.90
2495;DHT22;1258;48.336;14.322;2023-10-31T12:35:43;10.80;99.90
2495;DHT22;1258;48.336;14.322;2023-10-31T12:38:10;10.70;99.90
2495;DHT22;1258;48.336;14.322;2023-10-31T12:40:38;10.70;99.90
2495;DHT22;1258;48.336;14.322;2023-10-31T12:43:06;10.70;99.90
2495;DHT22;1258;48.336;14.322;2023-10-31T12:45:33;10.60;99.90
2495;DHT22;1258;48.336;14.322;2023-10-31T12:48:01;10.70;99.90
2495;DHT22;1258;48.336;14.322;2023-10-31T12:50:30;10.70;99.90
2495;DHT22;1258;48.336;14.322;2023-10-31T12:52:57;10.70;99.90
2495;DHT22;1258;48.336;14.322;2023-10-31T12:55:25;10.70;99.90
2495;DHT22;1258;48.336;14.322;2023-10-31T12:57:54;10.50;99.90
2495;DHT22;1258;48.336;14.322;2023-10-31T13:00:22;10.60;99.90
2495;DHT22;1258;48.336;14.322;2023-10-31T13:02:59;10.70;99.90
2495;DHT22;1258;48.336;14.322;2023-10-31T13:05:26;10.70;99.90
2495;DHT22;1258;48.336;14.322;2023-10-31T13:07:55;10.70;99.90
2495;DHT22;1258;48.336;14.322;2023-10-31T13:10:24;10.60;99.90
2495;DHT22;1258;48.336;14.322;2023-10-31T13:12:51;10.70;99.90
2495;DHT22;1258;48.336;14.322;2023-10-31T13:15:19;10.60;99.90
2495;DHT22;1258;48.336;14.322;2023-10-31T13:17:47;10.60;99.90
2495;DHT22;1258;48.336;14.322;2023-10-31T13:20:15;10.60;99.90
2495;DHT22;1258;48.336;14.322;2023-10-31T13:22:43;10.70;99.90
2495;DHT22;1258;48.336;14.322;2023-10-31T13:25:12;10.70;99.90
2495;DHT22;1258;48.336;14.322;2023-10-31T13:27:40;10.70;99.90
2495;DHT22;1258;48.336;14.322;2023-10-31T13:30:09;10.70;99.90
2495;DHT22;1258;48.336;14.322;2023-10-31T13:32:37;10.80;99.90
2495;DHT22;1258;48.336;14.322;2023-10-31T13:35:04;10.80;99.90
2495;DHT22;1258;48.336;14.322;2023-10-31T13:37:31;10.70;99.90
2495;DHT22;1258;48.336;14.322;2023-10-31T13:40:00;10.70;99.90
2495;DHT22;1258;48.336;14.322;2023-10-31T13:42:28;10.80;99.90
2495;DHT22;1258;48.336;14.322;2023-10-31T13:44:55;10.80;99.90
2495;DHT22;1258;48.336;14.322;2023-10-31T13:47:22;10.80;99.90
2495;DHT22;1258;48.336;14.322;2023-10-31T13:49:49;10.80;99.90
2495;DHT22;1258;48.336;14.322;2023-10-31T13:52:16;10.80;99.90
2495;DHT22;1258;48.336;14.322;2023-10-31T13:54:43;10.80;99.90
2495;DHT22;1258;48.336;14.322;2023-10-31T13:57:10;10.80;99.90
2495;DHT22;1258;48.336;14.322;2023-10-31T13:59:39;10.80;99.90
2495;DHT22;1258;48.336;14.322;2023-10-31T14:02:06;10.70;99.90
2495;DHT22;1258;48.336;14.322;2023-10-31T14:04:33;10.70;99.90
2495;DHT22;1258;48.336;14.322;2023-10-31T14:07:01;10.80;99.90
2495;DHT22;1258;48.336;14.322;2023-10-31T14:09:27;10.70;99.90
2495;DHT22;1258;48.336;14.322;2023-10-31T14:11:55;10.80;99.90
2495;DHT22;1258;48.336;14.322;2023-10-31T14:14:23;10.80;99.90
2495;DHT22;1258;48.336;14.322;2023-10-31T14:16:51;10.80;99.90
2495;DHT22;1258;48.336;14.322;2023-10-31T14:19:18;10.80;99.90
2495;DHT22;1258;48.336;14.322;2023-10-31T14:21:45;10.70;99.90
2495;DHT22;1258;48.336;14.322;2023-10-31T14:24:12;10.70;99.90
2495;DHT22;1258;48.336;14.322;2023-10-31T14:26:39;10.70;99.90
2495;DHT22;1258;48.336;14.322;2023-10-31T14:29:10;10.70;99.90
2495;DHT22;1258;48.336;14.322;2023-10-31T14:31:40;10.60;99.90
2495;DHT22;1258;48.336;14.322;2023-10-31T14:34:09;10.60;99.90
2495;DHT22;1258;48.336;14.322;2023-10-31T14:36:36;10.70;99.90
2495;DHT22;1258;48.336;14.322;2023-10-31T14:39:03;10.60;99.90
2495;DHT22;1258;48.336;14.322;2023-10-31T14:41:30;10.60;99.90
2495;DHT22;1258;48.336;14.322;2023-10-31T14:43:59;10.70;99.90
2495;DHT22;1258;48.336;14.322;2023-10-31T14:46:26;10.60;99.90
2495;DHT22;1258;48.336;14.322;2023-10-31T14:48:54;10.60;99.90
2495;DHT22;1258;48.336;14.322;2023-10-31T14:51:22;10.60;99.90
2495;DHT22;1258;48.336;14.322;2023-10-31T14:53:49;10.70;99.90
2495;DHT22;1258;48.336;14.322;2023-10-31T14:56:16;10.60;99.90
2495;DHT22;1258;48.336;14.322;2023-10-31T14:58:43;10.60;99.90
2495;DHT22;1258;48.336;14.322;2023-10-31T15:01:09;10.50;99.90
2495;DHT22;1258;48.336;14.322;2023-10-31T15:03:36;10.60;99.90
2495;DHT22;1258;48.336;14.322;2023-10-31T15:06:04;10.60;99.90
2495;DHT22;1258;48.336;14.322;2023-10-31T15:08:34;10.60;99.90
2495;DHT22;1258;48.336;14.322;2023-10-31T15:11:01;10.50;99.90
2495;DHT22;1258;48.336;14.322;2023-10-31T15:13:28;10.60;99.90
2495;DHT22;1258;48.336;14.322;2023-10-31T15:15:55;10.50;99.90
2495;DHT22;1258;48.336;14.322;2023-10-31T15:18:22;10.60;99.90
2495;DHT22;1258;48.336;14.322;2023-10-31T15:20:49;10.50;99.90
2495;DHT22;1258;48.336;14.322;2023-10-31T15:23:16;10.60;99.90
2495;DHT22;1258;48.336;14.322;2023-10-31T15:25:44;10.60;99.90
2495;DHT22;1258;48.336;14.322;2023-10-31T15:28:11;10.70;99.90
2495;DHT22;1258;48.336;14.322;2023-10-31T15:30:38;10.80;99.90
2495;DHT22;1258;48.336;14.322;2023-10-31T15:33:04;10.80;99.90
2495;DHT22;1258;48.336;14.322;2023-10-31T15:35:31;10.70;99.90
2495;DHT22;1258;48.336;14.322;2023-10-31T15:37:58;10.70;99.90
2495;DHT22;1258;48.336;14.322;2023-10-31T15:40:25;10.50;99.90
2495;DHT22;1258;48.336;14.322;2023-10-31T15:42:53;10.60;99.90
2495;DHT22;1258;48.336;14.322;2023-10-31T15:45:20;10.60;99.90
2495;DHT22;1258;48.336;14.322;2023-10-31T15:47:47;10.60;99.90